createdAt,value
2018-12-29T00:02:47.539Z,90.70
2018-12-29T00:07:43.534Z,76.03
2018-12-29T00:12:39.529Z,78.03
2018-12-29T00:17:35.423Z,78.67
2018-12-29T00:22:31.323Z,83.03
2018-12-29T00:27:27.214Z,83.40
2018-12-29T00:32:23.113Z,91.43
2018-12-29T00:38:00.749Z,84.67
2018-12-29T00:42:56.650Z,79.50
2018-12-29T00:47:52.660Z,72.80
2018-12-29T00:52:48.574Z,78.50
2018-12-29T00:57:44.476Z,83.30
2018-12-29T01:02:40.439Z,77.30
2018-12-29T01:07:36.444Z,87.10
2018-12-29T01:12:32.361Z,84.70
2018-12-29T01:17:28.264Z,74.37
2018-12-29T01:22:24.168Z,78.80
2018-12-29T01:27:20.132Z,83.53
2018-12-29T01:32:16.063Z,71.43
2018-12-29T01:37:11.959Z,69.73
2018-12-29T01:42:07.869Z,80.33
2018-12-29T01:47:03.822Z,88.37
2018-12-29T01:51:59.723Z,88.07
2018-12-29T01:56:55.598Z,76.57
2018-12-29T02:01:52.407Z,74.17
2018-12-29T02:06:48.276Z,82.93
2018-12-29T02:11:44.211Z,89.87
2018-12-29T02:16:40.106Z,93.63
2018-12-29T02:21:36.007Z,76.90
2018-12-29T02:31:40.468Z,84.77
2018-12-29T02:36:36.357Z,87.80
2018-12-29T02:41:32.261Z,88.07
2018-12-29T02:46:28.179Z,110.20
2018-12-29T02:51:24.087Z,84.87
2018-12-29T02:56:19.982Z,95.03
2018-12-29T03:01:36.319Z,90.33
2018-12-29T03:06:32.267Z,96.77
2018-12-29T03:11:28.167Z,87.40
2018-12-29T03:16:24.066Z,98.10
2018-12-29T03:21:19.962Z,85.97
2018-12-29T03:26:15.860Z,82.10
2018-12-29T03:31:15.137Z,81.30
2018-12-29T03:36:11.065Z,92.73
2018-12-29T03:41:06.968Z,90.00
2018-12-29T03:46:02.895Z,87.70
2018-12-29T03:50:58.786Z,85.87
2018-12-29T03:55:54.740Z,92.07
2018-12-29T04:01:12.462Z,100.73
2018-12-29T04:06:08.470Z,80.00
2018-12-29T04:11:04.478Z,85.63
2018-12-29T04:16:00.378Z,98.20
2018-12-29T04:20:56.279Z,84.17
2018-12-29T04:25:52.289Z,89.27
2018-12-29T04:31:09.116Z,103.93
2018-12-29T04:36:05.113Z,92.37
2018-12-29T04:41:01.011Z,95.07
2018-12-29T04:45:57.039Z,82.27
2018-12-29T04:50:52.934Z,103.60
2018-12-29T04:55:48.831Z,99.07
2018-12-29T05:00:45.313Z,89.23
2018-12-29T05:05:41.207Z,88.33
2018-12-29T05:10:37.104Z,93.27
2018-12-29T05:15:33.006Z,104.13
2018-12-29T05:20:28.902Z,100.90
2018-12-29T05:25:24.797Z,84.07
2018-12-29T05:30:20.698Z,89.57
2018-12-29T05:35:16.591Z,94.10
2018-12-29T05:40:12.499Z,99.27
2018-12-29T05:45:08.391Z,92.13
2018-12-29T05:50:04.385Z,108.90
2018-12-29T05:55:00.290Z,114.47
2018-12-29T05:59:56.181Z,98.67
2018-12-29T06:04:52.055Z,105.83
2018-12-29T06:09:47.946Z,100.77
2018-12-29T06:14:43.851Z,119.13
2018-12-29T06:19:39.742Z,98.77
2018-12-29T06:24:35.662Z,88.90
2018-12-29T06:29:31.542Z,94.07
2018-12-29T06:34:27.448Z,100.73
2018-12-29T06:39:23.342Z,83.83
2018-12-29T06:44:19.240Z,96.50
2018-12-29T06:49:15.261Z,110.67
2018-12-29T06:54:11.174Z,114.13
2018-12-29T06:59:07.067Z,115.47
2018-12-29T07:04:02.971Z,91.37
2018-12-29T07:08:58.874Z,113.17
2018-12-29T07:13:54.772Z,107.60
2018-12-29T07:18:50.830Z,105.17
2018-12-29T07:23:46.760Z,107.87
2018-12-29T07:28:42.680Z,119.30
2018-12-29T07:33:38.811Z,115.97
2018-12-29T07:38:34.712Z,119.20
2018-12-29T07:43:30.665Z,114.33
2018-12-29T07:48:26.586Z,113.27
2018-12-29T07:53:22.492Z,129.17
2018-12-29T07:58:18.404Z,123.60
2018-12-29T08:03:14.317Z,128.40
2018-12-29T08:08:10.228Z,118.97
2018-12-29T08:13:06.138Z,145.77
2018-12-29T08:18:02.077Z,127.87
2018-12-29T08:22:57.988Z,135.90
2018-12-29T08:27:54.075Z,135.93
2018-12-29T08:32:50.011Z,121.67
2018-12-29T08:37:53.588Z,441.87
2018-12-29T08:42:49.534Z,137.07
2018-12-29T08:47:45.463Z,115.73
2018-12-29T08:52:41.395Z,152.80
2018-12-29T08:57:38.126Z,134.20
2018-12-29T09:02:36.013Z,143.60
2018-12-29T09:07:31.955Z,388.67
2018-12-29T09:12:28.846Z,333.77
2018-12-29T09:17:24.753Z,175.83
2018-12-29T09:22:20.684Z,162.67
2018-12-29T09:27:16.592Z,171.40
2018-12-29T09:32:32.403Z,158.03
2018-12-29T09:37:28.336Z,333.00
2018-12-29T09:42:24.285Z,281.90
2018-12-29T09:47:20.215Z,320.07
2018-12-29T09:52:16.110Z,204.87
2018-12-29T09:57:12.019Z,367.27
2018-12-29T10:02:07.925Z,554.03
2018-12-29T10:07:03.989Z,260.33
2018-12-29T10:11:59.954Z,213.20
2018-12-29T10:16:55.873Z,455.80
2018-12-29T10:21:51.835Z,384.97
2018-12-29T10:32:11.363Z,187.90
2018-12-29T10:37:07.333Z,208.03
2018-12-29T10:42:03.455Z,273.33
2018-12-29T10:46:59.561Z,191.03
2018-12-29T10:51:55.594Z,195.70
2018-12-29T10:56:51.565Z,208.93
2018-12-29T11:01:47.552Z,186.70
2018-12-29T11:06:43.527Z,193.23
2018-12-29T11:11:39.729Z,190.23
2018-12-29T11:17:17.361Z,126.23
2018-12-29T11:22:13.338Z,110.67
2018-12-29T11:27:09.261Z,83.67
2018-12-29T11:32:05.310Z,105.50
2018-12-29T11:37:01.323Z,76.03
2018-12-29T11:41:57.303Z,119.83
2018-12-29T11:46:53.275Z,109.73
2018-12-29T11:51:49.176Z,121.80
2018-12-29T11:56:45.098Z,149.37
2018-12-29T12:01:41.755Z,101.40
2018-12-29T12:06:37.739Z,129.33
2018-12-29T12:11:33.704Z,137.13
2018-12-29T12:16:29.623Z,124.93
2018-12-29T12:21:25.528Z,138.57
2018-12-29T12:26:21.647Z,126.53
2018-12-29T12:31:19.913Z,124.77
2018-12-29T12:36:15.922Z,90.43
2018-12-29T12:41:11.891Z,74.33
2018-12-29T12:46:07.929Z,98.90
2018-12-29T12:51:03.857Z,107.63
2018-12-29T12:55:59.774Z,105.70
2018-12-29T13:01:17.025Z,107.90
2018-12-29T13:06:13.022Z,86.33
2018-12-29T13:11:08.933Z,65.30
2018-12-29T13:16:04.842Z,70.47
2018-12-29T13:21:00.744Z,77.10
2018-12-29T13:25:56.734Z,78.80
2018-12-29T13:31:34.611Z,70.03
2018-12-29T13:36:30.605Z,75.47
2018-12-29T13:41:26.525Z,65.03
2018-12-29T13:46:22.462Z,60.77
2018-12-29T13:51:18.381Z,51.73
2018-12-29T13:56:14.293Z,66.93
2018-12-29T14:01:32.573Z,61.23
2018-12-29T14:06:28.541Z,71.90
2018-12-29T14:11:24.485Z,65.00
2018-12-29T14:16:20.551Z,60.67
2018-12-29T14:21:16.447Z,60.00
2018-12-29T14:26:12.488Z,62.93
2018-12-29T14:31:10.569Z,67.43
2018-12-29T14:36:06.611Z,55.40
2018-12-29T14:41:02.505Z,65.60
2018-12-29T14:45:58.471Z,58.63
2018-12-29T14:50:54.384Z,55.03
2018-12-29T14:55:50.288Z,62.03
2018-12-29T15:00:46.299Z,48.70
2018-12-29T15:05:42.281Z,66.97
2018-12-29T15:10:38.204Z,50.23
2018-12-29T15:15:36.781Z,48.47
2018-12-29T15:20:33.083Z,44.67
2018-12-29T15:25:29.201Z,51.17
2018-12-29T15:30:25.103Z,50.93
2018-12-29T15:35:21.011Z,64.10
2018-12-29T15:40:16.999Z,64.90
2018-12-29T15:45:12.905Z,62.77
2018-12-29T15:50:22.626Z,63.80
2018-12-29T15:55:18.934Z,62.37
2018-12-29T16:00:14.835Z,67.00
2018-12-29T16:05:10.737Z,65.00
2018-12-29T16:10:07.054Z,50.47
2018-12-29T16:15:44.618Z,46.03
2018-12-29T16:20:40.520Z,24.83
2018-12-29T16:25:36.423Z,45.90
2018-12-29T16:30:32.400Z,34.57
2018-12-29T16:35:28.505Z,32.60
2018-12-29T16:40:26.301Z,19.53
2018-12-29T16:45:22.230Z,18.63
2018-12-29T16:50:18.128Z,20.43
2018-12-29T16:55:14.030Z,22.93
2018-12-29T17:00:09.926Z,17.63
2018-12-29T17:05:05.828Z,33.40
2018-12-29T17:10:01.729Z,21.60
2018-12-29T17:14:57.633Z,20.67
2018-12-29T17:19:53.533Z,25.83
2018-12-29T17:24:49.430Z,32.73
2018-12-29T17:29:45.326Z,31.33
2018-12-29T17:34:41.228Z,31.33
2018-12-29T17:39:37.124Z,28.40
2018-12-29T17:44:33.016Z,28.90
2018-12-29T17:49:28.922Z,29.90
2018-12-29T17:54:26.715Z,29.83
2018-12-29T17:59:22.617Z,33.87
2018-12-29T18:04:20.437Z,38.33
2018-12-29T18:09:16.346Z,30.30
2018-12-29T18:14:12.251Z,33.07
2018-12-29T18:19:08.143Z,20.73
2018-12-29T18:24:04.048Z,31.40
2018-12-29T18:28:59.944Z,36.57
2018-12-29T18:33:55.814Z,28.20
2018-12-29T18:38:51.715Z,46.17
2018-12-29T18:43:49.509Z,35.73
2018-12-29T18:48:45.407Z,44.17
2018-12-29T18:53:41.307Z,24.10
2018-12-29T18:58:37.200Z,44.57
2018-12-29T19:03:33.105Z,46.97
2018-12-29T19:08:29.398Z,51.87
2018-12-29T19:13:25.347Z,65.60
2018-12-29T19:18:23.092Z,37.70
2018-12-29T19:23:19.003Z,43.83
2018-12-29T19:28:16.911Z,38.87
2018-12-29T19:33:12.811Z,55.87
2018-12-29T19:38:08.761Z,42.73
2018-12-29T19:43:06.520Z,48.60
2018-12-29T19:48:22.494Z,38.13
2018-12-29T19:53:18.674Z,48.23
2018-12-29T19:58:14.573Z,50.83
2018-12-29T20:03:11.321Z,43.00
2018-12-29T20:08:08.335Z,30.17
2018-12-29T20:13:04.338Z,55.17
2018-12-29T20:18:00.277Z,34.67
2018-12-29T20:22:56.238Z,52.57
2018-12-29T20:27:52.149Z,32.63
2018-12-29T20:32:48.101Z,39.50
2018-12-29T20:37:44.012Z,32.30
2018-12-29T20:43:00.094Z,15.17
2018-12-29T20:47:56.214Z,9.03
2018-12-29T20:52:52.328Z,9.17
2018-12-29T20:57:48.223Z,7.93
2018-12-29T21:02:44.235Z,11.10
2018-12-29T21:07:40.330Z,15.00
2018-12-29T21:12:36.269Z,3.13
2018-12-29T21:17:32.203Z,12.47
2018-12-29T21:22:28.290Z,4.10
2018-12-29T21:27:24.197Z,17.20
2018-12-29T21:32:20.242Z,8.17
2018-12-29T21:37:16.209Z,8.10
2018-12-29T21:42:12.187Z,1.70
2018-12-29T21:47:08.091Z,8.03
2018-12-29T21:52:26.833Z,16.83
2018-12-29T21:57:22.839Z,7.07
2018-12-29T22:02:18.735Z,5.83
2018-12-29T22:07:14.693Z,6.50
2018-12-29T22:12:10.591Z,19.13
2018-12-29T22:17:06.830Z,4.10
2018-12-29T22:22:03.242Z,16.73
2018-12-29T22:26:59.135Z,17.17
2018-12-29T22:31:55.807Z,18.37
2018-12-29T22:36:51.733Z,9.93
2018-12-29T22:41:47.727Z,12.50
2018-12-29T22:46:43.625Z,20.73
2018-12-29T22:51:39.523Z,8.87
2018-12-29T22:56:35.426Z,30.27
2018-12-29T23:01:32.206Z,9.87
2018-12-29T23:06:28.149Z,25.07
2018-12-29T23:11:24.141Z,21.77
2018-12-29T23:16:20.138Z,12.53
2018-12-29T23:21:17.953Z,22.27
2018-12-29T23:26:13.871Z,18.07
2018-12-29T23:31:51.755Z,12.50
2018-12-29T23:36:47.706Z,15.33
2018-12-29T23:41:43.643Z,19.67
2018-12-29T23:46:39.670Z,20.70
2018-12-29T23:51:35.687Z,20.27
2018-12-29T23:56:33.459Z,16.03
